Overview Statistics Trail Chart Weather Telemetry Raw packets
 

This is the latest recevied weather packets stored in our database for station/object F4IEI-10. If no packets are shown the sender has not sent any weather packets the latest 10 day(s).

<< 29 30 31 32 33 >>
Time Temp. Humidity Pressure Rain* Wind** Luminosity Snow
1787753400 30° C 52% 1012 hPa - - - -
1787751601 30° C 55% 1012.2 hPa - - - -
1787749800 29.44° C 51% 1012.7 hPa - - - -
1787748000 28.33° C 58% 1013.1 hPa - - - -
1787746200 30.56° C 55% 1013.1 hPa - - - -
1787744400 28.33° C 59% 1013.3 hPa - - - -
1787743507 29.44° C 55% 1013.6 hPa - - - -
1787742600 29.44° C 57% 1013.7 hPa - - - -
1787741700 28.33° C 59% 1013.7 hPa - - - -
1787740800 28.33° C 59% 1013.9 hPa - - - -
1787739900 28.33° C 56% 1014.1 hPa - - - -
1787739000 27.78° C 63% 1014.3 hPa - - - -
1787738100 28.33° C 63% 1014.2 hPa - - - -
1787737200 28.89° C 66% 1014.4 hPa - - - -
1787736307 28.89° C 57% 1014.3 hPa - - - -
1787734506 28.33° C 73% 1014.4 hPa - - - -
1787733606 27.22° C 64% 1014.3 hPa - - - -
1787732706 25° C 71% 1014.3 hPa - - - -
1787731799 26.11° C 70% 1014 hPa - - - -
1787730906 27.22° C 66% 1014 hPa - - - -
1787729999 26.11° C 69% 1014 hPa - - - -
1787729106 25° C 75% 1014.1 hPa - - - -
1787728199 24.44° C 78% 1014.2 hPa - - - -
1787727299 21.67° C 89% 1014.1 hPa - - - -
1787726399 22.78° C 86% 1013.9 hPa - - - -

* Rain since midnight (hover to see other rain measurements)
** Current wind speed in m/s (hover to see current wind gust speed)